sensor_id;sensor_type;location;lat;lon;timestamp;pressure;altitude;pressure_sealevel;temperature;humidity
78206;BME280;67480;48.920;12.880;2023-11-18T00:02:23;97613.25;;;-0.54;68.06
78206;BME280;67480;48.920;12.880;2023-11-18T00:04:49;97615.69;;;-0.53;68.83
78206;BME280;67480;48.920;12.880;2023-11-18T00:07:15;97624.69;;;-0.39;68.75
78206;BME280;67480;48.920;12.880;2023-11-18T00:09:40;97643.88;;;-0.23;68.44
78206;BME280;67480;48.920;12.880;2023-11-18T00:12:08;97647.19;;;-0.31;68.68
78206;BME280;67480;48.920;12.880;2023-11-18T00:14:33;97661.47;;;-0.27;68.94
78206;BME280;67480;48.920;12.880;2023-11-18T00:16:58;97651.44;;;-0.30;69.27
78206;BME280;67480;48.920;12.880;2023-11-18T00:19:24;97656.44;;;-0.29;69.29
78206;BME280;67480;48.920;12.880;2023-11-18T00:21:49;97661.16;;;-0.24;69.08
78206;BME280;67480;48.920;12.880;2023-11-18T00:24:15;97663.59;;;-0.22;68.55
78206;BME280;67480;48.920;12.880;2023-11-18T00:26:40;97655.81;;;-0.22;68.82
78206;BME280;67480;48.920;12.880;2023-11-18T00:29:05;97651.75;;;-0.25;68.33
78206;BME280;67480;48.920;12.880;2023-11-18T00:31:30;97660.81;;;-0.29;68.35
78206;BME280;67480;48.920;12.880;2023-11-18T00:33:56;97662.22;;;-0.35;68.52
78206;BME280;67480;48.920;12.880;2023-11-18T00:36:21;97662.34;;;-0.44;68.69
78206;BME280;67480;48.920;12.880;2023-11-18T00:38:46;97655.91;;;-0.58;68.36
78206;BME280;67480;48.920;12.880;2023-11-18T00:41:12;97652.47;;;-0.67;69.17
78206;BME280;67480;48.920;12.880;2023-11-18T00:43:37;97648.16;;;-0.58;69.38
78206;BME280;67480;48.920;12.880;2023-11-18T00:46:03;97637.19;;;-0.52;68.97
78206;BME280;67480;48.920;12.880;2023-11-18T00:48:30;97632.16;;;-0.54;68.93
78206;BME280;67480;48.920;12.880;2023-11-18T00:50:55;97628.53;;;-0.43;68.84
78206;BME280;67480;48.920;12.880;2023-11-18T00:53:21;97630.44;;;-0.45;68.45
78206;BME280;67480;48.920;12.880;2023-11-18T00:55:47;97627.28;;;-0.39;68.75
78206;BME280;67480;48.920;12.880;2023-11-18T00:58:13;97633.03;;;-0.45;68.39
78206;BME280;67480;48.920;12.880;2023-11-18T01:00:38;97622.03;;;-0.47;68.83
78206;BME280;67480;48.920;12.880;2023-11-18T01:03:04;97634.69;;;-0.44;68.07
78206;BME280;67480;48.920;12.880;2023-11-18T01:05:29;97627.34;;;-0.49;68.40
78206;BME280;67480;48.920;12.880;2023-11-18T01:07:59;97636.72;;;-0.48;68.66
78206;BME280;67480;48.920;12.880;2023-11-18T01:10:24;97633.25;;;-0.38;68.28
78206;BME280;67480;48.920;12.880;2023-11-18T01:12:50;97634.72;;;-0.36;68.65
78206;BME280;67480;48.920;12.880;2023-11-18T01:15:15;97634.44;;;-0.33;68.23
78206;BME280;67480;48.920;12.880;2023-11-18T01:17:40;97628.13;;;-0.30;68.76
78206;BME280;67480;48.920;12.880;2023-11-18T01:20:07;97627.16;;;-0.29;68.36
78206;BME280;67480;48.920;12.880;2023-11-18T01:22:36;97628.44;;;-0.33;68.75
78206;BME280;67480;48.920;12.880;2023-11-18T01:25:06;97629.75;;;-0.29;68.94
78206;BME280;67480;48.920;12.880;2023-11-18T01:27:32;97629.88;;;-0.31;68.92
78206;BME280;67480;48.920;12.880;2023-11-18T01:29:59;97630.06;;;-0.32;69.02
78206;BME280;67480;48.920;12.880;2023-11-18T01:32:24;97637.25;;;-0.44;68.75
78206;BME280;67480;48.920;12.880;2023-11-18T01:34:50;97638.88;;;-0.43;69.17
78206;BME280;67480;48.920;12.880;2023-11-18T01:37:17;97646.81;;;-0.44;68.85
78206;BME280;67480;48.920;12.880;2023-11-18T01:39:42;97647.31;;;-0.59;68.79
78206;BME280;67480;48.920;12.880;2023-11-18T01:42:08;97649.91;;;-0.59;69.14
78206;BME280;67480;48.920;12.880;2023-11-18T01:44:33;97635.72;;;-0.55;69.70
78206;BME280;67480;48.920;12.880;2023-11-18T01:47:01;97640.97;;;-0.46;69.51
78206;BME280;67480;48.920;12.880;2023-11-18T01:49:31;97649.72;;;-0.39;69.78
78206;BME280;67480;48.920;12.880;2023-11-18T01:51:57;97654.59;;;-0.36;69.52
78206;BME280;67480;48.920;12.880;2023-11-18T01:54:24;97644.72;;;-0.41;69.29
78206;BME280;67480;48.920;12.880;2023-11-18T01:56:51;97657.16;;;-0.44;70.04
78206;BME280;67480;48.920;12.880;2023-11-18T01:59:20;97657.00;;;-0.43;69.98
78206;BME280;67480;48.920;12.880;2023-11-18T02:01:51;97662.03;;;-0.41;70.20
78206;BME280;67480;48.920;12.880;2023-11-18T02:04:18;97666.84;;;-0.46;69.65
78206;BME280;67480;48.920;12.880;2023-11-18T02:06:45;97671.34;;;-0.49;69.84
78206;BME280;67480;48.920;12.880;2023-11-18T02:09:16;97669.06;;;-0.52;70.01
78206;BME280;67480;48.920;12.880;2023-11-18T02:11:59;97671.34;;;-0.49;70.11
78206;BME280;67480;48.920;12.880;2023-11-18T02:14:27;97683.97;;;-0.45;69.97
78206;BME280;67480;48.920;12.880;2023-11-18T02:16:55;97671.66;;;-0.52;70.20
78206;BME280;67480;48.920;12.880;2023-11-18T02:19:24;97666.47;;;-0.52;70.36
78206;BME280;67480;48.920;12.880;2023-11-18T02:21:52;97676.72;;;-0.42;70.13
78206;BME280;67480;48.920;12.880;2023-11-18T02:24:30;97684.03;;;-0.37;70.18
78206;BME280;67480;48.920;12.880;2023-11-18T02:27:00;97677.25;;;-0.38;70.11
78206;BME280;67480;48.920;12.880;2023-11-18T02:29:28;97689.22;;;-0.37;70.61
78206;BME280;67480;48.920;12.880;2023-11-18T02:31:58;97673.38;;;-0.34;69.97
78206;BME280;67480;48.920;12.880;2023-11-18T02:34:30;97679.91;;;-0.30;70.15
78206;BME280;67480;48.920;12.880;2023-11-18T02:36:58;97681.22;;;-0.26;69.91
78206;BME280;67480;48.920;12.880;2023-11-18T02:39:36;97675.72;;;-0.23;70.23
78206;BME280;67480;48.920;12.880;2023-11-18T02:42:04;97668.31;;;-0.18;69.74
78206;BME280;67480;48.920;12.880;2023-11-18T02:44:34;97672.09;;;-0.12;69.99
78206;BME280;67480;48.920;12.880;2023-11-18T02:47:01;97680.66;;;-0.12;69.82
78206;BME280;67480;48.920;12.880;2023-11-18T02:49:26;97671.59;;;-0.16;70.04
78206;BME280;67480;48.920;12.880;2023-11-18T02:51:53;97682.75;;;-0.15;69.98
78206;BME280;67480;48.920;12.880;2023-11-18T02:54:18;97677.25;;;-0.12;70.07
78206;BME280;67480;48.920;12.880;2023-11-18T02:56:44;97678.81;;;-0.19;70.53
78206;BME280;67480;48.920;12.880;2023-11-18T02:59:09;97680.22;;;-0.25;70.64
78206;BME280;67480;48.920;12.880;2023-11-18T03:01:35;97686.84;;;-0.31;70.60
78206;BME280;67480;48.920;12.880;2023-11-18T03:04:01;97694.81;;;-0.24;70.92
78206;BME280;67480;48.920;12.880;2023-11-18T03:06:26;97688.16;;;-0.27;71.21
78206;BME280;67480;48.920;12.880;2023-11-18T03:08:52;97688.16;;;-0.27;70.53
78206;BME280;67480;48.920;12.880;2023-11-18T03:11:19;97697.25;;;-0.22;70.89
78206;BME280;67480;48.920;12.880;2023-11-18T03:13:44;97696.13;;;-0.20;70.89
78206;BME280;67480;48.920;12.880;2023-11-18T03:16:11;97692.28;;;-0.16;70.37
78206;BME280;67480;48.920;12.880;2023-11-18T03:18:41;97698.09;;;-0.14;70.10
78206;BME280;67480;48.920;12.880;2023-11-18T03:21:14;97696.50;;;-0.15;70.91
78206;BME280;67480;48.920;12.880;2023-11-18T03:23:40;97697.16;;;-0.13;70.77
78206;BME280;67480;48.920;12.880;2023-11-18T03:26:06;97698.09;;;-0.14;71.01
78206;BME280;67480;48.920;12.880;2023-11-18T03:28:31;97696.50;;;-0.15;70.61
78206;BME280;67480;48.920;12.880;2023-11-18T03:30:57;97699.44;;;-0.10;70.69
78206;BME280;67480;48.920;12.880;2023-11-18T03:33:22;97704.19;;;-0.05;70.39
78206;BME280;67480;48.920;12.880;2023-11-18T03:35:48;97717.03;;;0.05;70.03
78206;BME280;67480;48.920;12.880;2023-11-18T03:38:14;97709.56;;;0.02;70.36
78206;BME280;67480;48.920;12.880;2023-11-18T03:40:40;97715.34;;;-0.05;70.46
78206;BME280;67480;48.920;12.880;2023-11-18T03:43:06;97717.78;;;-0.03;70.50
78206;BME280;67480;48.920;12.880;2023-11-18T03:45:32;97715.66;;;-0.08;70.16
78206;BME280;67480;48.920;12.880;2023-11-18T03:47:58;97717.88;;;-0.13;70.04
78206;BME280;67480;48.920;12.880;2023-11-18T03:50:24;97722.38;;;-0.15;70.28
78206;BME280;67480;48.920;12.880;2023-11-18T03:52:49;97711.97;;;-0.23;70.20
78206;BME280;67480;48.920;12.880;2023-11-18T03:55:15;97712.78;;;-0.22;70.20
78206;BME280;67480;48.920;12.880;2023-11-18T03:57:40;97715.91;;;-0.19;70.21
78206;BME280;67480;48.920;12.880;2023-11-18T04:00:06;97717.44;;;-0.26;69.75
78206;BME280;67480;48.920;12.880;2023-11-18T04:02:31;97719.38;;;-0.28;69.99
78206;BME280;67480;48.920;12.880;2023-11-18T04:04:59;97710.28;;;-0.32;70.32
78206;BME280;67480;48.920;12.880;2023-11-18T04:07:24;97709.91;;;-0.37;69.93
78206;BME280;67480;48.920;12.880;2023-11-18T04:09:50;97716.44;;;-0.33;70.18
78206;BME280;67480;48.920;12.880;2023-11-18T04:12:15;97721.31;;;-0.30;70.20
78206;BME280;67480;48.920;12.880;2023-11-18T04:14:41;97724.19;;;-0.33;69.84
78206;BME280;67480;48.920;12.880;2023-11-18T04:17:06;97724.34;;;-0.35;69.83
78206;BME280;67480;48.920;12.880;2023-11-18T04:19:32;97729.44;;;-0.43;69.68
78206;BME280;67480;48.920;12.880;2023-11-18T04:21:57;97721.78;;;-0.53;69.74
78206;BME280;67480;48.920;12.880;2023-11-18T04:24:22;97721.09;;;-0.55;70.11
78206;BME280;67480;48.920;12.880;2023-11-18T04:26:48;97734.03;;;-0.55;70.50
78206;BME280;67480;48.920;12.880;2023-11-18T04:29:14;97728.88;;;-0.55;70.23
78206;BME280;67480;48.920;12.880;2023-11-18T04:31:39;97725.59;;;-0.57;69.78
78206;BME280;67480;48.920;12.880;2023-11-18T04:34:05;97733.22;;;-0.55;69.57
78206;BME280;67480;48.920;12.880;2023-11-18T04:36:31;97733.28;;;-0.65;69.27
78206;BME280;67480;48.920;12.880;2023-11-18T04:38:57;97742.00;;;-0.66;69.55
78206;BME280;67480;48.920;12.880;2023-11-18T04:41:22;97734.84;;;-0.72;69.71
78206;BME280;67480;48.920;12.880;2023-11-18T04:43:48;97740.16;;;-0.74;69.81
78206;BME280;67480;48.920;12.880;2023-11-18T04:46:13;97740.31;;;-0.75;69.74
78206;BME280;67480;48.920;12.880;2023-11-18T04:48:39;97736.69;;;-0.82;69.14
78206;BME280;67480;48.920;12.880;2023-11-18T04:51:04;97736.06;;;-0.94;69.18
78206;BME280;67480;48.920;12.880;2023-11-18T04:53:31;97744.94;;;-0.97;69.36
78206;BME280;67480;48.920;12.880;2023-11-18T04:55:57;97745.75;;;-0.96;69.54
78206;BME280;67480;48.920;12.880;2023-11-18T04:58:23;97747.13;;;-1.02;69.64
78206;BME280;67480;48.920;12.880;2023-11-18T05:00:49;97747.59;;;-1.06;69.73
78206;BME280;67480;48.920;12.880;2023-11-18T05:03:16;97742.94;;;-1.03;69.78
78206;BME280;67480;48.920;12.880;2023-11-18T05:05:41;97738.69;;;-1.04;70.00
78206;BME280;67480;48.920;12.880;2023-11-18T05:08:07;97734.09;;;-1.00;69.76
78206;BME280;67480;48.920;12.880;2023-11-18T05:10:34;97731.34;;;-0.99;69.99
78206;BME280;67480;48.920;12.880;2023-11-18T05:13:00;97731.09;;;-1.05;69.04
78206;BME280;67480;48.920;12.880;2023-11-18T05:15:25;97721.06;;;-1.08;69.49
78206;BME280;67480;48.920;12.880;2023-11-18T05:17:54;97728.09;;;-1.01;69.25
78206;BME280;67480;48.920;12.880;2023-11-18T05:20:20;97743.31;;;-0.98;69.25
78206;BME280;67480;48.920;12.880;2023-11-18T05:22:46;97741.16;;;-1.02;69.93
78206;BME280;67480;48.920;12.880;2023-11-18T05:25:12;97746.03;;;-0.99;69.87
78206;BME280;67480;48.920;12.880;2023-11-18T05:27:38;97742.47;;;-0.98;69.06
78206;BME280;67480;48.920;12.880;2023-11-18T05:30:08;97751.63;;;-1.04;69.39
78206;BME280;67480;48.920;12.880;2023-11-18T05:32:34;97753.84;;;-1.09;69.12
78206;BME280;67480;48.920;12.880;2023-11-18T05:34:59;97757.66;;;-1.13;69.74
78206;BME280;67480;48.920;12.880;2023-11-18T05:37:26;97747.03;;;-1.10;69.05
78206;BME280;67480;48.920;12.880;2023-11-18T05:39:53;97747.84;;;-1.09;69.10
78206;BME280;67480;48.920;12.880;2023-11-18T05:42:25;97749.63;;;-1.10;68.63
78206;BME280;67480;48.920;12.880;2023-11-18T05:44:50;97745.81;;;-1.06;69.80
78206;BME280;67480;48.920;12.880;2023-11-18T05:47:23;97750.41;;;-1.00;69.17
78206;BME280;67480;48.920;12.880;2023-11-18T05:49:48;97750.53;;;-1.01;69.34
78206;BME280;67480;48.920;12.880;2023-11-18T05:52:14;97751.28;;;-1.09;69.18
78206;BME280;67480;48.920;12.880;2023-11-18T05:54:39;97757.88;;;-1.24;68.82
78206;BME280;67480;48.920;12.880;2023-11-18T05:57:04;97764.69;;;-1.23;69.39
78206;BME280;67480;48.920;12.880;2023-11-18T05:59:30;97758.03;;;-1.26;69.14
78206;BME280;67480;48.920;12.880;2023-11-18T06:01:55;97759.34;;;-1.22;69.72
78206;BME280;67480;48.920;12.880;2023-11-18T06:04:22;97759.75;;;-1.17;69.20
78206;BME280;67480;48.920;12.880;2023-11-18T06:06:47;97766.88;;;-1.28;68.26
78206;BME280;67480;48.920;12.880;2023-11-18T06:09:12;97771.78;;;-1.35;69.00
78206;BME280;67480;48.920;12.880;2023-11-18T06:11:46;97765.50;;;-1.32;68.92
78206;BME280;67480;48.920;12.880;2023-11-18T06:14:11;97777.22;;;-1.28;68.95
78206;BME280;67480;48.920;12.880;2023-11-18T06:16:38;97768.09;;;-1.32;68.91
78206;BME280;67480;48.920;12.880;2023-11-18T06:19:05;97770.44;;;-1.39;68.82
78206;BME280;67480;48.920;12.880;2023-11-18T06:21:31;97765.78;;;-1.35;69.85
78206;BME280;67480;48.920;12.880;2023-11-18T06:23:58;97770.41;;;-1.29;69.61
78206;BME280;67480;48.920;12.880;2023-11-18T06:26:24;97778.53;;;-1.24;69.05
78206;BME280;67480;48.920;12.880;2023-11-18T06:28:52;97780.53;;;-1.18;69.26
78206;BME280;67480;48.920;12.880;2023-11-18T06:31:18;97784.22;;;-1.21;68.96
78206;BME280;67480;48.920;12.880;2023-11-18T06:33:44;97792.94;;;-1.22;68.96
78206;BME280;67480;48.920;12.880;2023-11-18T06:38:39;97791.22;;;-1.31;69.13
78206;BME280;67480;48.920;12.880;2023-11-18T06:41:06;97798.19;;;-1.41;68.80
78206;BME280;67480;48.920;12.880;2023-11-18T06:43:35;97805.97;;;-1.51;69.21
78206;BME280;67480;48.920;12.880;2023-11-18T06:46:37;97800.53;;;-1.48;69.65
78206;BME280;67480;48.920;12.880;2023-11-18T06:49:05;97806.38;;;-1.46;69.40
78206;BME280;67480;48.920;12.880;2023-11-18T06:51:34;97806.50;;;-1.47;69.26
78206;BME280;67480;48.920;12.880;2023-11-18T06:54:04;97802.16;;;-1.47;69.32
78206;BME280;67480;48.920;12.880;2023-11-18T06:56:35;97803.09;;;-1.48;69.17
78206;BME280;67480;48.920;12.880;2023-11-18T06:59:02;97801.47;;;-1.49;69.05
78206;BME280;67480;48.920;12.880;2023-11-18T07:01:28;97813.72;;;-1.51;68.99
78206;BME280;67480;48.920;12.880;2023-11-18T07:03:56;97810.19;;;-1.50;69.26
78206;BME280;67480;48.920;12.880;2023-11-18T07:06:21;97806.63;;;-1.49;69.72
78206;BME280;67480;48.920;12.880;2023-11-18T07:08:52;97803.41;;;-1.51;69.48
78206;BME280;67480;48.920;12.880;2023-11-18T07:11:19;97819.81;;;-1.42;69.71
78206;BME280;67480;48.920;12.880;2023-11-18T07:13:46;97812.31;;;-1.35;69.30
78206;BME280;67480;48.920;12.880;2023-11-18T07:16:12;97816.25;;;-1.31;69.68
78206;BME280;67480;48.920;12.880;2023-11-18T07:18:40;97821.53;;;-1.23;69.76
78206;BME280;67480;48.920;12.880;2023-11-18T07:21:06;97831.59;;;-1.20;69.90
78206;BME280;67480;48.920;12.880;2023-11-18T07:23:32;97831.00;;;-1.14;70.01
78206;BME280;67480;48.920;12.880;2023-11-18T07:25:58;97828.81;;;-1.09;69.91
78206;BME280;67480;48.920;12.880;2023-11-18T07:28:24;97828.81;;;-1.09;69.82
78206;BME280;67480;48.920;12.880;2023-11-18T07:30:49;97835.59;;;-1.08;69.84
78206;BME280;67480;48.920;12.880;2023-11-18T07:33:15;97847.03;;;-1.10;70.16
78206;BME280;67480;48.920;12.880;2023-11-18T07:35:42;97845.84;;;-1.16;69.90
78206;BME280;67480;48.920;12.880;2023-11-18T07:38:07;97853.59;;;-1.16;70.23
78206;BME280;67480;48.920;12.880;2023-11-18T07:40:33;97857.44;;;-1.20;70.54
78206;BME280;67480;48.920;12.880;2023-11-18T07:43:01;97858.47;;;-1.13;70.83
78206;BME280;67480;48.920;12.880;2023-11-18T07:45:27;97854.66;;;-1.09;71.05
78206;BME280;67480;48.920;12.880;2023-11-18T07:47:54;97857.91;;;-1.07;71.09
78206;BME280;67480;48.920;12.880;2023-11-18T07:50:20;97864.84;;;-0.98;70.87
78206;BME280;67480;48.920;12.880;2023-11-18T07:52:47;97857.88;;;-0.97;71.23
78206;BME280;67480;48.920;12.880;2023-11-18T07:55:14;97862.06;;;-0.86;71.38
78206;BME280;67480;48.920;12.880;2023-11-18T07:57:40;97861.19;;;-0.77;71.07
78206;BME280;67480;48.920;12.880;2023-11-18T08:00:06;97867.16;;;-0.67;70.86
78206;BME280;67480;48.920;12.880;2023-11-18T08:02:35;97864.78;;;-0.60;70.98
78206;BME280;67480;48.920;12.880;2023-11-18T08:05:01;97859.03;;;-0.54;70.23
78206;BME280;67480;48.920;12.880;2023-11-18T08:07:28;97864.16;;;-0.44;70.57
78206;BME280;67480;48.920;12.880;2023-11-18T08:09:53;97865.78;;;-0.43;70.61
78206;BME280;67480;48.920;12.880;2023-11-18T08:12:19;97870.66;;;-0.40;70.68
78206;BME280;67480;48.920;12.880;2023-11-18T08:14:45;97879.63;;;-0.35;70.36
78206;BME280;67480;48.920;12.880;2023-11-18T08:17:11;97866.53;;;-0.33;70.49
78206;BME280;67480;48.920;12.880;2023-11-18T08:19:37;97854.53;;;-0.34;70.39
78206;BME280;67480;48.920;12.880;2023-11-18T08:22:03;97863.00;;;-0.32;70.30
78206;BME280;67480;48.920;12.880;2023-11-18T08:24:29;97858.41;;;-0.38;71.08
78206;BME280;67480;48.920;12.880;2023-11-18T08:26:55;97861.94;;;-0.39;70.89
78206;BME280;67480;48.920;12.880;2023-11-18T08:29:20;97864.91;;;-0.34;70.49
78206;BME280;67480;48.920;12.880;2023-11-18T08:31:46;97869.50;;;-0.28;70.83
78206;BME280;67480;48.920;12.880;2023-11-18T08:34:11;97869.19;;;-0.25;71.30
78206;BME280;67480;48.920;12.880;2023-11-18T08:36:37;97861.81;;;-0.20;70.85
78206;BME280;67480;48.920;12.880;2023-11-18T08:39:02;97858.63;;;-0.14;70.43
78206;BME280;67480;48.920;12.880;2023-11-18T08:41:29;97870.03;;;-0.07;70.38
78206;BME280;67480;48.920;12.880;2023-11-18T08:43:56;97868.75;;;-0.03;70.23
78206;BME280;67480;48.920;12.880;2023-11-18T08:46:22;97861.38;;;0.03;69.67
78206;BME280;67480;48.920;12.880;2023-11-18T08:48:47;97867.44;;;0.11;69.38
78206;BME280;67480;48.920;12.880;2023-11-18T08:51:13;97850.78;;;0.14;69.02
78206;BME280;67480;48.920;12.880;2023-11-18T08:53:39;97859.88;;;0.18;68.78
78206;BME280;67480;48.920;12.880;2023-11-18T08:56:08;97874.53;;;0.27;68.28
78206;BME280;67480;48.920;12.880;2023-11-18T08:58:40;97866.81;;;0.35;68.02
78206;BME280;67480;48.920;12.880;2023-11-18T09:01:06;97858.06;;;0.36;68.24
78206;BME280;67480;48.920;12.880;2023-11-18T09:03:38;97861.03;;;0.41;68.11
78206;BME280;67480;48.920;12.880;2023-11-18T09:06:09;97858.63;;;0.48;68.31
78206;BME280;67480;48.920;12.880;2023-11-18T09:08:51;97858.81;;;0.47;67.66
78206;BME280;67480;48.920;12.880;2023-11-18T09:11:23;97863.25;;;0.54;67.67
78206;BME280;67480;48.920;12.880;2023-11-18T09:13:51;97872.63;;;0.55;67.46
78206;BME280;67480;48.920;12.880;2023-11-18T09:16:20;97860.03;;;0.60;67.97
78206;BME280;67480;48.920;12.880;2023-11-18T09:18:52;97866.03;;;0.61;67.45
78206;BME280;67480;48.920;12.880;2023-11-18T09:21:18;97875.28;;;0.63;67.79
78206;BME280;67480;48.920;12.880;2023-11-18T09:23:50;97865.78;;;0.72;67.28
78206;BME280;67480;48.920;12.880;2023-11-18T09:26:16;97873.25;;;0.75;67.27
78206;BME280;67480;48.920;12.880;2023-11-18T09:28:42;97875.53;;;0.78;67.08
78206;BME280;67480;48.920;12.880;2023-11-18T09:31:09;97872.31;;;0.84;67.01
78206;BME280;67480;48.920;12.880;2023-11-18T09:33:39;97875.78;;;0.93;66.86
78206;BME280;67480;48.920;12.880;2023-11-18T09:36:07;97881.50;;;0.97;66.96
78206;BME280;67480;48.920;12.880;2023-11-18T09:38:36;97877.59;;;1.01;66.91
78206;BME280;67480;48.920;12.880;2023-11-18T09:41:03;97884.13;;;1.05;66.95
78206;BME280;67480;48.920;12.880;2023-11-18T09:43:32;97875.84;;;1.09;66.78
78206;BME280;67480;48.920;12.880;2023-11-18T09:46:09;97882.88;;;1.17;67.04
78206;BME280;67480;48.920;12.880;2023-11-18T09:51:06;97872.19;;;1.20;66.72
78206;BME280;67480;48.920;12.880;2023-11-18T09:53:34;97884.84;;;1.23;66.29
78206;BME280;67480;48.920;12.880;2023-11-18T09:56:18;97892.66;;;1.31;66.90
78206;BME280;67480;48.920;12.880;2023-11-18T09:58:58;97895.25;;;1.31;66.76
78206;BME280;67480;48.920;12.880;2023-11-18T10:01:28;97896.44;;;1.37;66.56
78206;BME280;67480;48.920;12.880;2023-11-18T10:03:58;97899.16;;;1.36;67.06
78206;BME280;67480;48.920;12.880;2023-11-18T10:06:25;97900.13;;;1.35;67.36
78206;BME280;67480;48.920;12.880;2023-11-18T10:08:53;97910.53;;;1.35;67.76
78206;BME280;67480;48.920;12.880;2023-11-18T10:11:19;97912.13;;;1.36;68.38
78206;BME280;67480;48.920;12.880;2023-11-18T10:13:48;97900.81;;;1.37;67.67
78206;BME280;67480;48.920;12.880;2023-11-18T10:16:14;97899.81;;;1.38;68.24
78206;BME280;67480;48.920;12.880;2023-11-18T10:18:39;97892.38;;;1.43;67.45
78206;BME280;67480;48.920;12.880;2023-11-18T10:21:13;97894.03;;;1.52;67.32
78206;BME280;67480;48.920;12.880;2023-11-18T10:23:58;97879.09;;;1.46;68.13
78206;BME280;67480;48.920;12.880;2023-11-18T10:26:25;97881.38;;;1.49;67.71
78206;BME280;67480;48.920;12.880;2023-11-18T10:28:50;97884.63;;;1.51;67.86
78206;BME280;67480;48.920;12.880;2023-11-18T10:31:18;97877.84;;;1.50;67.81
78206;BME280;67480;48.920;12.880;2023-11-18T10:33:44;97879.09;;;1.46;67.81
78206;BME280;67480;48.920;12.880;2023-11-18T10:36:22;97884.81;;;1.58;67.27
78206;BME280;67480;48.920;12.880;2023-11-18T10:38:49;97890.81;;;1.58;67.69
78206;BME280;67480;48.920;12.880;2023-11-18T10:41:18;97890.00;;;1.58;67.59
78206;BME280;67480;48.920;12.880;2023-11-18T10:43:43;97885.63;;;1.58;67.87
78206;BME280;67480;48.920;12.880;2023-11-18T10:46:11;97875.09;;;1.60;67.51
78206;BME280;67480;48.920;12.880;2023-11-18T10:48:47;97876.56;;;1.62;67.11
78206;BME280;67480;48.920;12.880;2023-11-18T10:51:18;97873.97;;;1.62;67.23
78206;BME280;67480;48.920;12.880;2023-11-18T10:53:52;97869.56;;;1.63;67.08
78206;BME280;67480;48.920;12.880;2023-11-18T10:56:26;97872.66;;;1.66;67.15
78206;BME280;67480;48.920;12.880;2023-11-18T10:58:53;97869.44;;;1.64;67.61
78206;BME280;67480;48.920;12.880;2023-11-18T11:01:29;97865.53;;;1.68;67.22
78206;BME280;67480;48.920;12.880;2023-11-18T11:03:57;97855.63;;;1.72;66.72
78206;BME280;67480;48.920;12.880;2023-11-18T11:06:26;97855.81;;;1.70;66.96
78206;BME280;67480;48.920;12.880;2023-11-18T11:08:56;97858.88;;;1.74;67.16
78206;BME280;67480;48.920;12.880;2023-11-18T11:11:24;97860.69;;;1.82;66.74
78206;BME280;67480;48.920;12.880;2023-11-18T11:14:00;97860.53;;;1.83;66.63
78206;BME280;67480;48.920;12.880;2023-11-18T11:16:35;97856.81;;;1.86;66.35
78206;BME280;67480;48.920;12.880;2023-11-18T11:19:04;97858.59;;;1.85;66.33
78206;BME280;67480;48.920;12.880;2023-11-18T11:21:42;97847.72;;;1.90;66.39
78206;BME280;67480;48.920;12.880;2023-11-18T11:27:22;97858.59;;;1.93;66.48
78206;BME280;67480;48.920;12.880;2023-11-18T11:30:02;97857.63;;;1.94;66.11
78206;BME280;67480;48.920;12.880;2023-11-18T11:32:42;97856.00;;;1.93;66.50
78206;BME280;67480;48.920;12.880;2023-11-18T11:35:18;97859.09;;;1.97;66.09
78206;BME280;67480;48.920;12.880;2023-11-18T11:37:47;97846.09;;;1.97;66.26
78206;BME280;67480;48.920;12.880;2023-11-18T11:40:14;97844.81;;;2.01;66.32
78206;BME280;67480;48.920;12.880;2023-11-18T11:42:48;97831.50;;;1.96;66.36
78206;BME280;67480;48.920;12.880;2023-11-18T11:45:23;97832.78;;;2.00;66.56
78206;BME280;67480;48.920;12.880;2023-11-18T11:47:54;97835.22;;;2.02;66.62
78206;BME280;67480;48.920;12.880;2023-11-18T11:50:38;97848.22;;;2.10;66.14
78206;BME280;67480;48.920;12.880;2023-11-18T11:53:16;97848.72;;;2.05;66.12
78206;BME280;67480;48.920;12.880;2023-11-18T11:55:53;97854.41;;;2.01;66.63
78206;BME280;67480;48.920;12.880;2023-11-18T11:58:37;97843.19;;;2.00;66.95
78206;BME280;67480;48.920;12.880;2023-11-18T12:01:56;97852.94;;;2.06;66.82
78206;BME280;67480;48.920;12.880;2023-11-18T12:04:18;97848.38;;;2.00;66.40
78206;BME280;67480;48.920;12.880;2023-11-18T12:06:54;97857.31;;;2.06;66.39
78206;BME280;67480;48.920;12.880;2023-11-18T12:09:22;97849.38;;;2.07;66.69
78206;BME280;67480;48.920;12.880;2023-11-18T12:11:51;97841.25;;;2.10;66.15
78206;BME280;67480;48.920;12.880;2023-11-18T12:14:27;97840.91;;;2.13;65.87
78206;BME280;67480;48.920;12.880;2023-11-18T12:17:12;97838.66;;;2.10;66.41
78206;BME280;67480;48.920;12.880;2023-11-18T12:19:58;97851.97;;;2.15;65.93
78206;BME280;67480;48.920;12.880;2023-11-18T12:23:02;97861.06;;;2.19;65.74
78206;BME280;67480;48.920;12.880;2023-11-18T12:25:30;97846.44;;;2.18;66.11
78206;BME280;67480;48.920;12.880;2023-11-18T12:27:57;97845.63;;;2.18;65.99
78206;BME280;67480;48.920;12.880;2023-11-18T12:38:51;97810.38;;;2.32;65.91
78206;BME280;67480;48.920;12.880;2023-11-18T12:41:39;97806.81;;;2.33;66.37
78206;BME280;67480;48.920;12.880;2023-11-18T12:49:37;97772.69;;;2.36;66.18
78206;BME280;67480;48.920;12.880;2023-11-18T12:52:03;97777.41;;;2.40;65.98
78206;BME280;67480;48.920;12.880;2023-11-18T12:54:33;97787.63;;;2.42;66.23
78206;BME280;67480;48.920;12.880;2023-11-18T12:57:00;97779.47;;;2.45;65.91
78206;BME280;67480;48.920;12.880;2023-11-18T12:59:26;97766.66;;;2.43;65.80
78206;BME280;67480;48.920;12.880;2023-11-18T13:01:51;97768.75;;;2.48;65.75
78206;BME280;67480;48.920;12.880;2023-11-18T13:04:22;97766.16;;;2.48;65.98
78206;BME280;67480;48.920;12.880;2023-11-18T13:06:49;97767.13;;;2.47;65.90
78206;BME280;67480;48.920;12.880;2023-11-18T13:09:17;97763.53;;;2.48;66.17
78206;BME280;67480;48.920;12.880;2023-11-18T13:11:53;97760.78;;;2.50;65.94
78206;BME280;67480;48.920;12.880;2023-11-18T13:14:25;97756.25;;;2.52;65.77
78206;BME280;67480;48.920;12.880;2023-11-18T13:16:52;97750.88;;;2.53;65.73
78206;BME280;67480;48.920;12.880;2023-11-18T13:21:51;97742.75;;;2.48;65.57
78206;BME280;67480;48.920;12.880;2023-11-18T13:24:17;97751.66;;;2.54;65.25